Impacts METAR Board INFO
IDs:

KORD - Chicago/O'Hare Intl, IL, US

Updated at: 2230 UTC 13 Dec 2017
Potential Impact None Slight Moderate High
Time13/10Z 13/11Z 13/12Z 13/13Z 13/14Z 13/15Z 13/16Z 13/17Z 13/18Z 13/19Z 13/20Z 13/21Z 13/22Z
VIS10 10 10 10 10 10 10 10 10 10 10 9 10
CIG80 40 80 85 80 90 210 120 90 70 34 41 23
CoverOVCOVCOVCOVCOVCOVCOVCOVCOVCOVCOVCOVCOVC
FltCatVFRVFRVFRVFRVFRVFRVFRVFRVFRVFRVFRVFRMVFR
WX-----------------------SN--
WDir160170170180160170170190210220250290300
WSpd9 10 10 10 15 19 14 12 14 13 8 16 17
WGst-- -- -- -- -- -- 23 20 -- -- 18 -- 24
Raw hourly METARs
KORD 130951Z 16009KT 10SM OVC080 M05/M11 A2975 RMK AO2 SLP085 T10501111 $
KORD 131051Z 17010KT 10SM OVC040 M04/M11 A2971 RMK AO2 SLP070 T10441111 $
KORD 131151Z 17010KT 10SM FEW037 BKN080 OVC095 M04/M11 A2968 RMK AO2 SLP059 4/001 T10391111 11039 21056 56042 $
KORD 131251Z 18010KT 10SM FEW037 BKN085 OVC120 M03/M11 A2962 RMK AO2 SLP041 T10331111 $
KORD 131351Z 16015KT 10SM OVC080 M02/M10 A2954 RMK AO2 PRESFR SLP013 VIRGA NW-N T10221100
KORD 131451Z 17019KT 10SM OVC090 M02/M09 A2946 RMK AO2 SLP986 T10171089 58071
KORD 131551Z 17014G23KT 10SM FEW090 BKN210 OVC250 M01/M08 A2941 RMK AO2 SLP967 T10061078
KORD 131651Z 19012G20KT 10SM BKN120 OVC250 01/M07 A2936 RMK AO2 SLP950 T00061067
KORD 131751Z 21014KT 10SM FEW040 BKN090 OVC110 02/M06 A2931 RMK AO2 SLP933 T00171056 10017 21039 56050
KORD 131851Z 22013KT 10SM FEW038 OVC070 02/M05 A2927 RMK AO2 SLP919 T00221050
KORD 131951Z 25008G18KT 10SM BKN034 BKN080 OVC100 03/M03 A2925 RMK AO2 SLP910 T00331033
KORD 132059Z 29016KT 9SM -SN FEW013 SCT018 OVC041 02/M01 A2928 RMK AO2 P0000 T00171011
KORD 132151Z 30017G24KT 10SM BKN023 OVC027 02/M03 A2932 RMK AO2 SNE34 SLP937 P0000 T00171028